Time;durP1;ratioP1;P1;durP2;ratioP2;P2;SDS_P1;SDS_P2;PMS_P1;PMS_P2;Temp;Humidity;BMP_temperature;BMP_pressure;BME280_temperature;BME280_humidity;BME280_pressure;Samples;Min_cycle;Max_cycle;Signal;HPM_P1;HPM_P2
2021/02/17 09:54:40;;;;;;;0.4;0.3;;;;;;;17.56;42.53613;941.51;;;;
2021/02/17 09:57:12;;;;;;;0.2;0.2;;;;;;;17.62;43.93457;941.5571;;;;
2021/02/17 09:59:51;;;;;;;3.3;0.4;;;;;;;17.67;41.36328;941.5967;;;;
2021/02/17 10:02:17;;;;;;;0.3;0.2;;;;;;;17.78;39.16797;941.5328;;;;
2021/02/17 10:04:55;;;;;;;0.2;0.1;;;;;;;18;40.25684;941.4889;;;;
2021/02/17 10:07:32;;;;;;;0.8;0.4;;;;;;;16.7;42.77734;941.6241;;;;
2021/02/17 10:10:02;;;;;;;0.4;0.4;;;;;;;17.38;41.94043;941.6503;;;;
2021/02/17 10:12:39;;;;;;;0.3;0.2;;;;;;;18.25;37.83887;941.5408;;;;
2021/02/17 10:15:18;;;;;;;0.5;0.3;;;;;;;18.62;38.92969;941.5388;;;;
2021/02/17 10:17:55;;;;;;;0.3;0.1;;;;;;;18.61;35.96191;941.4146;;;;
2021/02/17 10:20:31;;;;;;;0.2;0.2;;;;;;;18.05;37.66992;941.3791;;;;
2021/02/17 10:23:03;;;;;;;1.1;0.2;;;;;;;17.7;38.9873;941.3405;;;;
2021/02/17 10:25:45;;;;;;;1.2;0.5;;;;;;;16.29;42.2627;941.3564;;;;
2021/02/17 10:28:24;;;;;;;0.7;0.3;;;;;;;15.69;44.7002;941.475;;;;
2021/02/17 10:31:13;;;;;;;0.8;0.5;;;;;;;14.27;47.03223;941.4757;;;;
2021/02/17 10:33:45;;;;;;;0.1;0.1;;;;;;;14.86;46.2998;941.4949;;;;
2021/02/17 10:36:24;;;;;;;0.2;0.2;;;;;;;15.02;45.75195;941.5317;;;;
2021/02/17 10:38:49;;;;;;;0.1;0.1;;;;;;;15.4;45.31836;941.5227;;;;
2021/02/17 10:41:21;;;;;;;0.2;0.1;;;;;;;15.57;43.68457;941.5408;;;;
2021/02/17 10:43:54;;;;;;;0.1;0.1;;;;;;;15.74;41.77148;941.449;;;;
2021/02/17 10:46:21;;;;;;;0.1;0.1;;;;;;;15.83;43.04004;941.3597;;;;
2021/02/17 10:48:57;;;;;;;0.1;0.1;;;;;;;15.85;42.05957;941.2874;;;;
2021/02/17 10:51:28;;;;;;;0.1;0.1;;;;;;;15.32;42.03125;941.2679;;;;
2021/02/17 10:54:05;;;;;;;0.2;0.2;;;;;;;15.83;42.32227;941.3083;;;;
2021/02/17 10:56:33;;;;;;;0.4;0.2;;;;;;;16.28;40.14453;941.2704;;;;
2021/02/17 10:58:57;;;;;;;0.5;0.3;;;;;;;16.03;40.33105;941.2623;;;;
2021/02/17 11:01:40;;;;;;;0.1;0.1;;;;;;;16.1;40.74121;941.2386;;;;
2021/02/17 11:04:16;;;;;;;0.1;0.1;;;;;;;16.19;39.52344;941.1713;;;;
2021/02/17 11:06:46;;;;;;;0.4;0.4;;;;;;;16.33;40.10352;941.1833;;;;
2021/02/17 11:09:19;;;;;;;0.2;0.2;;;;;;;16.37;39.54102;941.1379;;;;
2021/02/17 11:11:47;;;;;;;0.3;0.2;;;;;;;16.45;40.04492;941.14;;;;
2021/02/17 11:14:19;;;;;;;0.2;0.2;;;;;;;16.76;39.8418;941.0952;;;;
2021/02/17 11:16:46;;;;;;;0;0;;;;;;;16.96;39.23438;941.0797;;;;
2021/02/17 11:19:11;;;;;;;0.3;0.1;;;;;;;17.24;37.49609;941.0072;;;;
2021/02/17 11:21:37;;;;;;;0.1;0.1;;;;;;;16.91;39.13574;941.0385;;;;
2021/02/17 11:24:02;;;;;;;0.1;0.1;;;;;;;17.44;37.23535;940.9905;;;;
2021/02/17 11:26:27;;;;;;;0.9;0.2;;;;;;;16.79;39.0332;940.8922;;;;
2021/02/17 11:29:01;;;;;;;0.2;0.2;;;;;;;16.81;38.81641;940.8862;;;;
2021/02/17 11:31:37;;;;;;;0.3;0.3;;;;;;;17.31;37.31738;940.8259;;;;
2021/02/17 11:34:07;;;;;;;0.4;0.2;;;;;;;16.41;39.8457;940.8787;;;;
2021/02/17 11:36:35;;;;;;;0.3;0.1;;;;;;;16.92;38.65137;940.7623;;;;
2021/02/17 11:39:07;;;;;;;2.3;0.1;;;;;;;17.19;38.52441;940.8368;;;;
2021/02/17 11:41:36;;;;;;;0;0;;;;;;;17.45;37.83984;940.8028;;;;
2021/02/17 11:44:08;;;;;;;0.6;0.4;;;;;;;17.2;37.64453;940.8398;;;;
2021/02/17 11:46:36;;;;;;;0.3;0.3;;;;;;;16.36;39.12305;940.8222;;;;
2021/02/17 11:49:02;;;;;;;0.3;0.3;;;;;;;17.16;37.95313;940.8075;;;;
2021/02/17 11:51:32;;;;;;;0.6;0.1;;;;;;;17.98;35.89844;940.7899;;;;
2021/02/17 11:54:08;;;;;;;0.2;0.1;;;;;;;18.95;33.44043;940.6461;;;;
2021/02/17 11:56:42;;;;;;;0;0;;;;;;;18.47;34.17285;940.595;;;;
2021/02/17 11:59:12;;;;;;;0.1;0.1;;;;;;;17.53;36.00195;940.6697;;;;
2021/02/17 12:01:37;;;;;;;0.2;0.2;;;;;;;18.59;35.2041;940.5695;;;;
2021/02/17 12:04:10;;;;;;;0.4;0.3;;;;;;;20.47;31.67578;940.6755;;;;
2021/02/17 12:06:36;;;;;;;0.2;0.2;;;;;;;20.67;31.52637;940.6458;;;;
2021/02/17 12:09:09;;;;;;;0.2;0.2;;;;;;;21.78;29.11035;940.675;;;;
2021/02/17 12:11:39;;;;;;;0.8;0.3;;;;;;;22.54;27.72852;940.6337;;;;
2021/02/17 12:14:04;;;;;;;0.3;0.2;;;;;;;22.03;29.29102;940.6331;;;;
2021/02/17 12:16:46;;;;;;;0.1;0.1;;;;;;;22.78;27.3916;940.6195;;;;
2021/02/17 12:19:21;;;;;;;0.3;0.1;;;;;;;21.48;29.75781;940.5028;;;;
2021/02/17 12:21:57;;;;;;;0.9;0.3;;;;;;;20.06;33.11621;940.6409;;;;
2021/02/17 12:24:25;;;;;;;0.3;0.3;;;;;;;19.95;32.98047;940.6658;;;;
2021/02/17 12:26:58;;;;;;;0.3;0.3;;;;;;;20.53;31.36426;940.7277;;;;
2021/02/17 12:29:30;;;;;;;0.4;0.1;;;;;;;21.6;30.81934;940.5408;;;;
2021/02/17 12:31:58;;;;;;;1.7;0.4;;;;;;;20.83;31.57227;940.6267;;;;
2021/02/17 12:34:27;;;;;;;0.4;0.4;;;;;;;19.27;33.66309;940.5961;;;;
2021/02/17 12:36:54;;;;;;;0.3;0.3;;;;;;;17;36.87402;940.5933;;;;
2021/02/17 12:39:17;;;;;;;1.2;0.7;;;;;;;16.46;38.76172;940.6013;;;;
2021/02/17 12:41:42;;;;;;;0.2;0.1;;;;;;;16.99;38.45996;940.6288;;;;
2021/02/17 12:44:11;;;;;;;0.6;0.2;;;;;;;16.8;38.67578;940.6138;;;;
2021/02/17 12:47:09;;;;;;;0.2;0.1;;;;;;;17.13;38.48438;940.5519;;;;
2021/02/17 12:56:28;;;;;;;0.1;0.1;;;;;;;20.72;31.44824;940.5545;;;;
2021/02/17 12:58:54;;;;;;;0.2;0.2;;;;;;;20.71;31.58789;940.647;;;;
2021/02/17 13:01:19;;;;;;;0.2;0.2;;;;;;;20.92;31.35742;940.4953;;;;
2021/02/17 13:03:47;;;;;;;0.4;0.2;;;;;;;20.78;30.65723;940.4827;;;;
2021/02/17 13:06:12;;;;;;;0;0;;;;;;;20.06;31.63477;940.5018;;;;
2021/02/17 13:08:40;;;;;;;1.2;0.3;;;;;;;20.62;32.69141;940.582;;;;
2021/02/17 13:11:04;;;;;;;0.1;0.1;;;;;;;20.27;31.79004;940.6063;;;;
2021/02/17 13:13:32;;;;;;;0.1;0.1;;;;;;;20.38;31.24805;940.6248;;;;
2021/02/17 13:16:11;;;;;;;0.4;0.3;;;;;;;21;30.38086;940.5767;;;;
2021/02/17 13:18:38;;;;;;;0.3;0.3;;;;;;;21.13;29.64063;940.5126;;;;
2021/02/17 13:21:03;;;;;;;0.1;0.1;;;;;;;19.47;32.15234;940.5251;;;;
2021/02/17 13:23:36;;;;;;;0.4;0.2;;;;;;;18.71;34.43457;940.5381;;;;
2021/02/17 13:26:06;;;;;;;0.2;0.2;;;;;;;18.37;34.60645;940.6149;;;;
2021/02/17 13:28:31;;;;;;;1.5;0.3;;;;;;;19.13;33.05859;940.5994;;;;
2021/02/17 13:30:56;;;;;;;2.4;0.5;;;;;;;20.43;31.24023;940.5909;;;;
2021/02/17 13:33:22;;;;;;;0.2;0.2;;;;;;;20.74;31.01758;940.6147;;;;
2021/02/17 13:35:47;;;;;;;0.2;0.2;;;;;;;22.25;28.51953;940.5985;;;;
2021/02/17 13:38:15;;;;;;;0.2;0.1;;;;;;;23.27;26.26953;940.5721;;;;
2021/02/17 13:40:40;;;;;;;0.4;0.3;;;;;;;22.67;27.17285;940.538;;;;
2021/02/17 13:43:06;;;;;;;0.2;0.1;;;;;;;22.34;27.85645;940.5047;;;;
2021/02/17 13:45:31;;;;;;;0.5;0.2;;;;;;;21.29;29.03125;940.5355;;;;
2021/02/17 13:47:58;;;;;;;0.4;0.2;;;;;;;22.08;28.19238;940.5969;;;;
2021/02/17 13:50:23;;;;;;;0.3;0.2;;;;;;;22.44;27.95703;940.5267;;;;
2021/02/17 13:52:49;;;;;;;0.1;0.1;;;;;;;22.42;27.38086;940.421;;;;
2021/02/17 13:55:14;;;;;;;0.4;0.3;;;;;;;21.22;29.2373;940.4066;;;;
2021/02/17 13:57:42;;;;;;;0.6;0.4;;;;;;;20.64;30.49609;940.4127;;;;
2021/02/17 14:00:07;;;;;;;1.2;0.3;;;;;;;21.1;29.70898;940.4828;;;;
2021/02/17 14:02:35;;;;;;;0.3;0.3;;;;;;;22.68;28.33594;940.4573;;;;
2021/02/17 14:05:00;;;;;;;0.2;0.1;;;;;;;22.33;28.05566;940.4611;;;;
2021/02/17 14:07:25;;;;;;;0.9;0.4;;;;;;;23.55;25.76855;940.4712;;;;
2021/02/17 14:09:51;;;;;;;0.7;0.4;;;;;;;23.46;25.50391;940.4525;;;;
2021/02/17 14:12:16;;;;;;;2.5;0.2;;;;;;;23.32;26.2373;940.402;;;;
2021/02/17 14:14:44;;;;;;;0.3;0.1;;;;;;;23.9;25.38867;940.3658;;;;
2021/02/17 14:17:12;;;;;;;0.5;0.1;;;;;;;24.54;24.0459;940.413;;;;
2021/02/17 14:19:39;;;;;;;3.1;0.3;;;;;;;23.81;24.91211;940.4425;;;;
2021/02/17 14:22:04;;;;;;;0.4;0.3;;;;;;;24.19;25.38184;940.4573;;;;
2021/02/17 14:24:33;;;;;;;0.2;0.1;;;;;;;24.51;24.75098;940.3876;;;;
2021/02/17 14:26:58;;;;;;;0.3;0.2;;;;;;;25.24;23.6709;940.4459;;;;
2021/02/17 14:29:27;;;;;;;0.4;0.2;;;;;;;23.75;25.23926;940.4943;;;;
2021/02/17 14:31:58;;;;;;;0.7;0.2;;;;;;;24.37;24.64941;940.4523;;;;
2021/02/17 14:34:26;;;;;;;0.7;0.2;;;;;;;23.64;25.47949;940.3851;;;;
2021/02/17 14:36:51;;;;;;;1.4;0.4;;;;;;;23.87;25.0332;940.303;;;;
2021/02/17 14:39:18;;;;;;;0.4;0.2;;;;;;;23.88;25.63477;940.3303;;;;
2021/02/17 14:41:43;;;;;;;2.1;0.5;;;;;;;21.65;27.86035;940.3513;;;;
2021/02/17 14:44:12;;;;;;;0.2;0.2;;;;;;;20.66;29.7373;940.3369;;;;
2021/02/17 14:46:37;;;;;;;0.7;0.2;;;;;;;21.28;28.80859;940.3147;;;;
2021/02/17 14:49:07;;;;;;;0.7;0.3;;;;;;;21.07;29.0166;940.312;;;;
2021/02/17 14:51:32;;;;;;;0.2;0.2;;;;;;;19.63;31.16016;940.3205;;;;
2021/02/17 14:54:01;;;;;;;0.5;0.2;;;;;;;19.35;32.08496;940.2424;;;;
2021/02/17 14:56:29;;;;;;;1.1;0.6;;;;;;;19.22;32.56445;940.3708;;;;
2021/02/17 14:58:54;;;;;;;1;0.5;;;;;;;16.28;37.0332;940.4091;;;;
2021/02/17 15:01:21;;;;;;;0.6;0.3;;;;;;;17.29;35.91113;940.3312;;;;
2021/02/17 15:03:46;;;;;;;1.7;0.6;;;;;;;16.37;37.5498;940.11;;;;
2021/02/17 15:06:13;;;;;;;0.4;0.3;;;;;;;15.89;39.27734;940.2606;;;;
2021/02/17 15:08:39;;;;;;;0.2;0.2;;;;;;;16.15;39.03418;940.3624;;;;
2021/02/17 15:11:06;;;;;;;0.2;0.2;;;;;;;15.63;40.20117;940.3667;;;;
2021/02/17 15:13:37;;;;;;;0.3;0.3;;;;;;;15.45;40.51953;940.3889;;;;
2021/02/17 15:16:09;;;;;;;1.7;0.8;;;;;;;15.09;41.62793;940.4768;;;;
2021/02/17 15:18:47;;;;;;;2.7;0.5;;;;;;;15.21;41.61719;940.5421;;;;
2021/02/17 15:21:14;;;;;;;4.2;1.4;;;;;;;15.19;41.8457;940.5245;;;;
2021/02/17 15:23:39;;;;;;;1.1;0.5;;;;;;;15.33;41.48926;940.4824;;;;
2021/02/17 15:26:07;;;;;;;1.5;0.8;;;;;;;15.4;41.11523;940.4996;;;;
2021/02/17 15:28:33;;;;;;;1;0.6;;;;;;;15.44;40.8877;940.535;;;;
2021/02/17 15:30:57;;;;;;;0.5;0.4;;;;;;;15.17;41.18555;940.4989;;;;
2021/02/17 15:33:23;;;;;;;0.8;0.7;;;;;;;15.18;41.30176;940.4916;;;;
2021/02/17 15:35:48;;;;;;;1.2;0.8;;;;;;;14.61;42.51563;940.5272;;;;
2021/02/17 15:38:17;;;;;;;1;0.8;;;;;;;13.76;44.48047;940.5369;;;;
2021/02/17 15:40:42;;;;;;;0.6;0.5;;;;;;;13.4;45.31836;940.5654;;;;
2021/02/17 15:43:09;;;;;;;1.1;0.4;;;;;;;13.22;45.73535;940.6537;;;;
2021/02/17 15:45:36;;;;;;;0.6;0.4;;;;;;;13.23;45.97852;940.6609;;;;
2021/02/17 15:48:02;;;;;;;0.4;0.4;;;;;;;13.08;46.44434;940.6094;;;;
2021/02/17 15:50:27;;;;;;;0.4;0.4;;;;;;;12.46;47.67383;940.6392;;;;
2021/02/17 15:52:56;;;;;;;0.6;0.5;;;;;;;12.14;48.92285;940.6765;;;;
2021/02/17 15:55:21;;;;;;;0.6;0.6;;;;;;;11.9;49.25098;940.6201;;;;
2021/02/17 15:57:48;;;;;;;0.7;0.6;;;;;;;12.01;49.05762;940.6927;;;;
2021/02/17 16:00:13;;;;;;;0.4;0.4;;;;;;;11.75;49.66895;940.7267;;;;
2021/02/17 16:02:41;;;;;;;0.3;0.3;;;;;;;11.78;49.87793;940.7082;;;;
2021/02/17 16:05:06;;;;;;;0.7;0.3;;;;;;;11.76;50.01367;940.7045;;;;
2021/02/17 16:07:33;;;;;;;0.5;0.5;;;;;;;11.73;50.21582;940.7386;;;;
2021/02/17 16:09:58;;;;;;;13.7;1.8;;;;;;;11.35;51.4873;940.7239;;;;
2021/02/17 16:12:26;;;;;;;7.6;1.7;;;;;;;11.48;50.9873;940.7558;;;;
2021/02/17 16:14:51;;;;;;;1.6;0.8;;;;;;;11.38;51.7998;940.7634;;;;
2021/02/17 16:17:17;;;;;;;0.9;0.5;;;;;;;11.1;52.22363;940.8549;;;;
2021/02/17 16:19:45;;;;;;;0.5;0.4;;;;;;;10.45;53.93652;940.8585;;;;
2021/02/17 16:22:10;;;;;;;1.1;0.6;;;;;;;10.02;55.73145;940.8816;;;;
2021/02/17 16:24:36;;;;;;;0.7;0.7;;;;;;;9.84;54.60352;940.9222;;;;
2021/02/17 16:27:01;;;;;;;0.5;0.4;;;;;;;9.67;55.91504;940.9422;;;;
2021/02/17 16:29:29;;;;;;;1.4;0.5;;;;;;;9.56;56.42383;940.9296;;;;
2021/02/17 16:31:54;;;;;;;1;0.8;;;;;;;9.41;57.11035;940.8714;;;;
2021/02/17 16:34:23;;;;;;;0.4;0.4;;;;;;;9.5;56.91797;940.9008;;;;
2021/02/17 16:36:48;;;;;;;0.5;0.5;;;;;;;9.48;57.19922;940.9202;;;;
2021/02/17 16:39:14;;;;;;;0.7;0.6;;;;;;;9.58;57.23633;940.9459;;;;
2021/02/17 16:41:39;;;;;;;1.6;1.4;;;;;;;9.65;57.54102;940.9959;;;;
2021/02/17 16:44:06;;;;;;;1;0.8;;;;;;;9.6;57.5918;940.99;;;;
2021/02/17 16:46:31;;;;;;;1.6;1;;;;;;;9.65;58.00781;940.9776;;;;
2021/02/17 16:48:59;;;;;;;3.8;1.9;;;;;;;9.58;58.18164;941.1097;;;;
2021/02/17 16:51:26;;;;;;;1.7;1.2;;;;;;;9.47;58.3252;941.1077;;;;
2021/02/17 16:53:51;;;;;;;0.9;0.7;;;;;;;9.26;57.38672;941.1298;;;;
2021/02/17 16:56:22;;;;;;;1.9;1.2;;;;;;;9.16;58.5;941.1259;;;;
2021/02/17 16:58:54;;;;;;;3.9;1.5;;;;;;;9;58.55859;941.1639;;;;
2021/02/17 17:01:27;;;;;;;5.3;0.9;;;;;;;8.94;59.14063;941.1984;;;;
2021/02/17 17:03:55;;;;;;;2.3;1;;;;;;;8.91;59.2041;941.2303;;;;
2021/02/17 17:06:21;;;;;;;1.6;1;;;;;;;8.67;59.51367;941.2551;;;;
2021/02/17 17:08:47;;;;;;;1.3;1;;;;;;;8.72;58.96387;941.2818;;;;
2021/02/17 17:11:12;;;;;;;1.1;0.7;;;;;;;8.76;59.13867;941.3286;;;;
2021/02/17 17:13:38;;;;;;;1.1;1;;;;;;;8.57;58.22656;941.2639;;;;
2021/02/17 17:16:14;;;;;;;3;1.2;;;;;;;8.64;58.50879;941.3903;;;;
2021/02/17 17:18:39;;;;;;;4.9;1.9;;;;;;;8.57;58.14746;941.383;;;;
2021/02/17 17:21:10;;;;;;;2.8;1.8;;;;;;;8.57;58.41895;941.4052;;;;
2021/02/17 17:23:34;;;;;;;3.1;1;;;;;;;8.54;58.67773;941.38;;;;
2021/02/17 17:25:59;;;;;;;4.5;1.9;;;;;;;8.35;59.99121;941.392;;;;
2021/02/17 17:28:25;;;;;;;3.9;2.9;;;;;;;8.15;61.33594;941.5209;;;;
2021/02/17 17:30:53;;;;;;;6.2;2.2;;;;;;;7.65;63.10449;941.5667;;;;
2021/02/17 17:33:18;;;;;;;2.3;1.6;;;;;;;7.51;63.84277;941.5717;;;;
2021/02/17 17:35:46;;;;;;;2.5;1.7;;;;;;;7.73;63.01367;941.591;;;;
2021/02/17 17:38:11;;;;;;;3;1;;;;;;;7.81;62.69531;941.5956;;;;
2021/02/17 17:40:40;;;;;;;2.8;1.3;;;;;;;7.53;63.75488;941.6609;;;;
2021/02/17 17:43:08;;;;;;;7.6;2.7;;;;;;;7.59;63.55859;941.698;;;;
2021/02/17 17:45:33;;;;;;;2.6;1.7;;;;;;;7.6;63.3125;941.6476;;;;
2021/02/17 17:48:01;;;;;;;2.7;1.7;;;;;;;7.58;63.15039;941.6987;;;;
2021/02/17 17:50:26;;;;;;;1.3;1.2;;;;;;;7.46;63.47168;941.7224;;;;
2021/02/17 17:52:53;;;;;;;0.8;0.6;;;;;;;7.33;64.15527;941.7075;;;;
2021/02/17 17:55:18;;;;;;;0.7;0.7;;;;;;;7.15;64.67188;941.7403;;;;
2021/02/17 17:57:50;;;;;;;3.3;1.9;;;;;;;7.08;65.11621;941.7361;;;;
2021/02/17 18:00:18;;;;;;;1.7;1.1;;;;;;;7.13;64.81543;941.7461;;;;
2021/02/17 18:02:43;;;;;;;10.4;5.6;;;;;;;7.03;65.78613;941.8097;;;;
2021/02/17 18:05:10;;;;;;;9.1;4.1;;;;;;;6.91;66.38086;941.8141;;;;
2021/02/17 18:07:37;;;;;;;5.1;3.3;;;;;;;6.74;67.25977;941.8816;;;;
2021/02/17 18:10:01;;;;;;;3.6;2.4;;;;;;;6.84;66.61816;941.8895;;;;
2021/02/17 18:12:27;;;;;;;3.1;2;;;;;;;6.85;66.15527;941.8124;;;;
2021/02/17 18:14:53;;;;;;;4.8;1.9;;;;;;;6.82;65.70898;941.8724;;;;
2021/02/17 18:17:22;;;;;;;4.3;1.6;;;;;;;6.74;65.73145;941.8817;;;;
2021/02/17 18:19:47;;;;;;;3.1;1.7;;;;;;;6.66;65.86621;941.9205;;;;
2021/02/17 18:22:12;;;;;;;3;1.9;;;;;;;6.51;66.0127;941.9031;;;;
2021/02/17 18:24:41;;;;;;;16.6;8.3;;;;;;;6.52;65.7998;941.9049;;;;
2021/02/17 18:27:06;;;;;;;7.7;3.6;;;;;;;6.35;66.45215;941.9249;;;;
2021/02/17 18:29:33;;;;;;;8.7;4.4;;;;;;;6.26;67.89551;941.9124;;;;
2021/02/17 18:31:58;;;;;;;6.6;3.2;;;;;;;6.17;67.84961;941.9276;;;;
2021/02/17 18:34:24;;;;;;;8.7;3.7;;;;;;;6.16;67.66602;941.9668;;;;
2021/02/17 18:36:50;;;;;;;3.7;2.6;;;;;;;6.06;68.10059;942.0037;;;;
2021/02/17 18:39:18;;;;;;;5.1;2.6;;;;;;;6.02;67.88086;942.0063;;;;
2021/02/17 18:41:43;;;;;;;4.4;2.8;;;;;;;5.94;67.90137;942.0209;;;;
2021/02/17 18:44:13;;;;;;;4.7;3.2;;;;;;;5.84;68.08887;941.9975;;;;
2021/02/17 18:46:44;;;;;;;9.4;3.8;;;;;;;5.66;68.44434;941.9155;;;;
2021/02/17 18:49:14;;;;;;;7.9;3.7;;;;;;;5.5;69.00586;941.9849;;;;
2021/02/17 18:51:40;;;;;;;5.7;3.5;;;;;;;5.43;69.31152;942.026;;;;
2021/02/17 18:54:05;;;;;;;8.3;3.3;;;;;;;5.29;69.91895;942.0792;;;;
2021/02/17 18:56:30;;;;;;;7.4;4.4;;;;;;;5.18;70.55664;942.0703;;;;
2021/02/17 18:58:56;;;;;;;8.6;3.3;;;;;;;5.1;70.67676;942.0144;;;;
2021/02/17 19:01:22;;;;;;;11;4.9;;;;;;;5.22;69.97559;942.0609;;;;
2021/02/17 19:03:47;;;;;;;9.3;4;;;;;;;5.22;69.86133;942.0948;;;;
2021/02/17 19:06:20;;;;;;;8.9;4.7;;;;;;;5.3;69.81836;942.1561;;;;
2021/02/17 19:08:48;;;;;;;5.2;3;;;;;;;5.31;69.52832;942.2274;;;;
2021/02/17 19:11:16;;;;;;;7.1;2.9;;;;;;;4.85;70.88477;942.2766;;;;
2021/02/17 19:13:43;;;;;;;3.9;2.4;;;;;;;4.71;71.58105;942.207;;;;
2021/02/17 19:16:10;;;;;;;11.5;4.6;;;;;;;4.78;71.24219;942.2388;;;;
2021/02/17 19:18:35;;;;;;;11.1;4.7;;;;;;;4.7;71.39941;942.2745;;;;
2021/02/17 19:21:01;;;;;;;19.8;11.2;;;;;;;4.74;71.62109;942.296;;;;
2021/02/17 19:23:28;;;;;;;9.1;5.2;;;;;;;4.64;72.25586;942.3306;;;;
2021/02/17 19:25:53;;;;;;;17;6.9;;;;;;;4.72;71.69531;942.302;;;;
2021/02/17 19:28:20;;;;;;;7.5;4.1;;;;;;;4.63;71.83789;942.3359;;;;
2021/02/17 19:30:45;;;;;;;11.1;5.1;;;;;;;4.4;72.7666;942.2996;;;;
2021/02/17 19:33:10;;;;;;;3.8;2.6;;;;;;;4.23;73.42676;942.3066;;;;
2021/02/17 19:35:37;;;;;;;21.8;8.8;;;;;;;4.43;72.50391;942.399;;;;
2021/02/17 19:38:04;;;;;;;12.6;3.9;;;;;;;4.03;74.00879;942.4478;;;;
2021/02/17 19:40:29;;;;;;;8.5;3.4;;;;;;;4.09;73.68164;942.4753;;;;
2021/02/17 19:42:56;;;;;;;14.7;7.2;;;;;;;4.13;73.2627;942.4292;;;;
2021/02/17 19:45:21;;;;;;;6.5;3.6;;;;;;;3.98;73.47266;942.4385;;;;
2021/02/17 19:47:48;;;;;;;35.4;14.4;;;;;;;3.9;74.05273;942.4249;;;;
2021/02/17 19:50:13;;;;;;;12.1;5.4;;;;;;;3.6;75.19238;942.4417;;;;
2021/02/17 19:52:41;;;;;;;8.7;3.6;;;;;;;3.07;77.38672;942.4396;;;;
2021/02/17 19:55:06;;;;;;;5.7;2.5;;;;;;;3.17;76.85645;942.4742;;;;
2021/02/17 19:57:34;;;;;;;2.8;2.1;;;;;;;3.26;76.36816;942.476;;;;
2021/02/17 20:00:02;;;;;;;6.5;2.7;;;;;;;3.41;75.43945;942.4852;;;;
2021/02/17 20:02:27;;;;;;;11.6;3.7;;;;;;;3.03;77.13379;942.4978;;;;
2021/02/17 20:04:52;;;;;;;12.7;6.2;;;;;;;3.07;76.97168;942.5151;;;;
2021/02/17 20:07:22;;;;;;;18.3;7.4;;;;;;;3;77.28613;942.545;;;;
2021/02/17 20:09:49;;;;;;;14.2;6.5;;;;;;;3.02;77.16602;942.5414;;;;
2021/02/17 20:12:20;;;;;;;3.4;2.2;;;;;;;3.12;76.5332;942.5511;;;;
2021/02/17 20:14:47;;;;;;;8;3.6;;;;;;;3.41;75.13477;942.5674;;;;
2021/02/17 20:17:27;;;;;;;2.4;1.6;;;;;;;2.8;77.10254;942.6142;;;;
2021/02/17 20:19:55;;;;;;;24.3;10.7;;;;;;;2.82;77.51074;942.592;;;;
2021/02/17 20:22:20;;;;;;;72.6;30.9;;;;;;;3.11;76.18359;942.5594;;;;
2021/02/17 20:24:45;;;;;;;25.9;12.8;;;;;;;2.83;77.16504;942.5381;;;;
2021/02/17 20:27:10;;;;;;;5.8;2.8;;;;;;;2.9;77.2998;942.6386;;;;
2021/02/17 20:29:36;;;;;;;8.4;3.4;;;;;;;2.9;76.90723;942.6025;;;;
2021/02/17 20:32:03;;;;;;;3.7;1.9;;;;;;;3.11;76.07129;942.5846;;;;
2021/02/17 20:34:36;;;;;;;2.8;1.9;;;;;;;3.16;75.50879;942.6248;;;;
2021/02/17 20:37:00;;;;;;;4.5;2.6;;;;;;;2.9;76.40234;942.582;;;;
2021/02/17 20:39:25;;;;;;;2.4;2;;;;;;;2.27;79.29199;942.5735;;;;
2021/02/17 20:41:50;;;;;;;3.4;2;;;;;;;2.3;79.42188;942.6607;;;;
2021/02/17 20:44:17;;;;;;;2.1;1.5;;;;;;;2.09;80.41113;942.6731;;;;
2021/02/17 20:46:41;;;;;;;2.5;1.7;;;;;;;2.02;80.51074;942.6603;;;;
2021/02/17 20:49:10;;;;;;;2.6;1.7;;;;;;;2.13;80.22949;942.6588;;;;
2021/02/17 20:51:35;;;;;;;8.9;4.2;;;;;;;2.45;78.97852;942.6434;;;;
2021/02/17 20:54:01;;;;;;;4.5;2.5;;;;;;;2.67;77.65137;942.7192;;;;
2021/02/17 20:56:26;;;;;;;4;2.6;;;;;;;2.71;77.38965;942.7219;;;;
2021/02/17 20:58:58;;;;;;;6.9;3.3;;;;;;;2.62;77.40723;942.6895;;;;
2021/02/17 21:01:27;;;;;;;5;2.8;;;;;;;2.81;77.01563;942.7598;;;;
2021/02/17 21:03:55;;;;;;;4.8;2.3;;;;;;;2.75;77.23926;942.7764;;;;
2021/02/17 21:06:20;;;;;;;6.4;3.7;;;;;;;2.61;77.05664;942.7014;;;;
2021/02/17 21:08:48;;;;;;;7.5;3.4;;;;;;;2.5;77.57617;942.7913;;;;
2021/02/17 21:11:16;;;;;;;14.1;3.6;;;;;;;2.23;79.11523;942.8223;;;;
2021/02/17 21:13:42;;;;;;;4.8;2.2;;;;;;;2.4;78.4209;942.7082;;;;
2021/02/17 21:16:12;;;;;;;8.2;3;;;;;;;2.36;78.4668;942.609;;;;
2021/02/17 21:18:39;;;;;;;4.6;2.6;;;;;;;2.51;77.85645;942.6699;;;;
2021/02/17 21:21:06;;;;;;;4;2;;;;;;;2.22;79.03711;942.5531;;;;
2021/02/17 21:23:31;;;;;;;3.8;2;;;;;;;2.2;78.88672;942.5485;;;;
2021/02/17 21:26:01;;;;;;;2.1;1.7;;;;;;;2.29;78.40039;942.5888;;;;
2021/02/17 21:28:29;;;;;;;3.6;1.7;;;;;;;2.35;78.38672;942.6211;;;;
2021/02/17 21:30:54;;;;;;;4.8;2.5;;;;;;;2.5;77.69824;942.6448;;;;
2021/02/17 21:33:20;;;;;;;7.7;3.5;;;;;;;2.06;79.55371;942.6495;;;;
2021/02/17 21:35:45;;;;;;;7.8;3.4;;;;;;;1.99;80.16797;942.6036;;;;
2021/02/17 21:38:11;;;;;;;5.2;2.8;;;;;;;2.09;79.66309;942.6731;;;;
2021/02/17 21:40:36;;;;;;;5.6;2.2;;;;;;;2.22;79.2832;942.6836;;;;
2021/02/17 21:43:03;;;;;;;5.9;2.3;;;;;;;2.11;79.3418;942.675;;;;
2021/02/17 21:45:28;;;;;;;3.6;2.1;;;;;;;2.12;79.88965;942.6587;;;;
2021/02/17 21:47:53;;;;;;;4.5;2.1;;;;;;;2.37;78.45898;942.6003;;;;
2021/02/17 21:50:18;;;;;;;3.1;2.4;;;;;;;1.88;80.2041;942.541;;;;
2021/02/17 21:52:45;;;;;;;3.5;1.8;;;;;;;1.64;81.5;942.551;;;;
2021/02/17 21:55:10;;;;;;;3.5;2.1;;;;;;;1.45;82.70215;942.4288;;;;
2021/02/17 21:57:37;;;;;;;3.7;1.5;;;;;;;1.45;82.90723;942.5759;;;;
2021/02/17 22:00:02;;;;;;;4.3;1.8;;;;;;;1.33;83.41895;942.4556;;;;
2021/02/17 22:02:28;;;;;;;4.4;2.2;;;;;;;;;;;;;
2021/02/17 22:04:53;;;;;;;2.2;1.7;;;;;;;;;;;;;
2021/02/17 22:07:18;;;;;;;2.7;1.5;;;;;;;;;;;;;
2021/02/17 22:09:43;;;;;;;3.3;1.8;;;;;;;;;;;;;
2021/02/17 22:12:08;;;;;;;3.4;1.8;;;;;;;;;;;;;
2021/02/17 22:14:34;;;;;;;2.6;1.7;;;;;;;;;;;;;
2021/02/17 22:17:01;;;;;;;1.9;1.2;;;;;;;;;;;;;
2021/02/17 22:19:26;;;;;;;2.2;1.3;;;;;;;;;;;;;
2021/02/17 22:21:51;;;;;;;3.8;1.6;;;;;;;;;;;;;
2021/02/17 22:24:16;;;;;;;1.9;1.5;;;;;;;;;;;;;
2021/02/17 22:26:44;;;;;;;2.1;1.6;;;;;;;;;;;;;
2021/02/17 22:29:09;;;;;;;3.3;1.6;;;;;;;;;;;;;
2021/02/17 22:31:35;;;;;;;2.5;1.9;;;;;;;;;;;;;
2021/02/17 22:34:00;;;;;;;6.9;2.4;;;;;;;;;;;;;
2021/02/17 22:36:25;;;;;;;6.1;3.2;;;;;;;;;;;;;
2021/02/17 22:38:50;;;;;;;3.3;2.2;;;;;;;;;;;;;
2021/02/17 22:41:16;;;;;;;6.6;2.8;;;;;;;;;;;;;
2021/02/17 22:43:41;;;;;;;2.6;2;;;;;;;;;;;;;
2021/02/17 22:46:07;;;;;;;4.1;1.8;;;;;;;;;;;;;
2021/02/17 22:48:32;;;;;;;4.6;1.9;;;;;;;;;;;;;
2021/02/17 22:50:58;;;;;;;3.2;1.8;;;;;;;;;;;;;
2021/02/17 22:53:23;;;;;;;2.4;1.6;;;;;;;;;;;;;
2021/02/17 22:55:50;;;;;;;1.4;1.3;;;;;;;;;;;;;
2021/02/17 22:58:15;;;;;;;2.1;1.3;;;;;;;;;;;;;
2021/02/17 23:00:41;;;;;;;2.3;1.4;;;;;;;;;;;;;
2021/02/17 23:03:06;;;;;;;2.4;1.4;;;;;;;;;;;;;
2021/02/17 23:05:33;;;;;;;4.7;1.4;;;;;;;;;;;;;
2021/02/17 23:07:58;;;;;;;1.2;1.1;;;;;;;;;;;;;
2021/02/17 23:10:23;;;;;;;2.2;1.4;;;;;;;;;;;;;
2021/02/17 23:12:49;;;;;;;2.2;1.3;;;;;;;;;;;;;
2021/02/17 23:15:18;;;;;;;1.6;1.1;;;;;;;;;;;;;
2021/02/17 23:17:47;;;;;;;6.1;1.8;;;;;;;;;;;;;
2021/02/17 23:20:12;;;;;;;1.7;1.2;;;;;;;;;;;;;
2021/02/17 23:22:38;;;;;;;2.1;1.8;;;;;;;;;;;;;
2021/02/17 23:25:03;;;;;;;2;1.6;;;;;;;;;;;;;
2021/02/17 23:27:28;;;;;;;2.2;1.4;;;;;;;;;;;;;
2021/02/17 23:29:53;;;;;;;1;0.7;;;;;;;;;;;;;
2021/02/17 23:32:19;;;;;;;1.9;1.3;;;;;;;;;;;;;
2021/02/17 23:34:44;;;;;;;2;1.3;;;;;;;;;;;;;
2021/02/17 23:37:10;;;;;;;2.3;1.4;;;;;;;;;;;;;
2021/02/17 23:39:35;;;;;;;1.9;1.1;;;;;;;;;;;;;
2021/02/17 23:42:01;;;;;;;1.2;1.1;;;;;;;;;;;;;
2021/02/17 23:44:27;;;;;;;3.2;0.9;;;;;;;;;;;;;
2021/02/17 23:46:54;;;;;;;0.9;0.8;;;;;;;;;;;;;
2021/02/17 23:49:20;;;;;;;1;0.9;;;;;;;;;;;;;
2021/02/17 23:51:45;;;;;;;1.3;1.1;;;;;;;;;;;;;
2021/02/17 23:54:11;;;;;;;2.5;1.7;;;;;;;;;;;;;
2021/02/17 23:56:36;;;;;;;1.7;1.4;;;;;;;;;;;;;
2021/02/17 23:59:01;;;;;;;2.6;1.7;;;;;;;;;;;;;
